KICT/ICT METAR and TAF weather

Enter ICAO airport designator
Station Type Date Time Source
KICT METAR 2019/04/24 21:53 UTC NOAA

KICT 242153Z VRB03KT 10SM SCT043 SCT150 SCT180 22/10 A2981 RMK AO2 SLP091 T02170100


Station Type Date Time Source
KICT Decoded METAR 2019/04/24 21:53 UTC NOAA

WICHITA MID-CONTINENT AIRPORT , KS, United States (KICT) 37-39N 97-26W 408M
Apr 24, 2019 - 05:53 PM EDT / 2019.04.24 2153 UTC
Wind: Variable at 3 MPH (3 KT):0
Visibility: 10 mile(s):0
Sky conditions: partly cloudy
Temperature: 71.1 F (21.7 C)
Dew Point: 50.0 F (10.0 C)
Relative Humidity: 47%
Pressure (altimeter): 29.81 in. Hg (1009 hPa)
ob: KICT 242153Z VRB03KT 10SM SCT043 SCT150 SCT180 22/10 A2981 RMK AO2 SLP091 T02170100
cycle: 22

Station Type Date Time Source
KICT TAF 2019/04/24 18:22 UTC NOAA

TAF KICT 241720Z 2418/2518 VRB03KT P6SM SKC
FM251500 35010KT P6SM FEW250
FM251700 36016G24KT P6SM FEW250

Example: see airport list